Time;durP1;ratioP1;P1;durP2;ratioP2;P2;SDS_P1;SDS_P2;PMS_P1;PMS_P2;Temp;Humidity;BMP_temperature;BMP_pressure;BME280_temperature;BME280_humidity;BME280_pressure;Samples;Min_cycle;Max_cycle;Signal;HPM_P1;HPM_P2
2024/03/11 00:00:57;;;;;;;2.50;1.87;;;;;;;;;;4995798;28;20202;-84
2024/03/11 00:04:01;;;;;;;1.93;1.73;;;;;;;;;;4996105;28;20628;-84
2024/03/11 00:07:08;;;;;;;1.80;1.50;;;;;;;;;;4996842;28;20178;-84
2024/03/11 00:10:12;;;;;;;1.50;1.40;;;;;;;;;;5006938;28;20245;-85
2024/03/11 00:13:17;;;;;;;1.40;1.30;;;;;;;;;;4996108;28;20218;-84
2024/03/11 00:16:22;;;;;;;3.23;1.20;;;;;;;;;;4998331;28;20186;-84
2024/03/11 00:19:26;;;;;;;1.50;1.33;;;;;;;;;;5010446;28;20574;-84
2024/03/11 00:22:31;;;;;;;1.17;1.00;;;;;;;;;;5000848;28;20222;-83
2024/03/11 00:25:35;;;;;;;1.20;1.10;;;;;;;;;;4987160;28;20624;-84
2024/03/11 00:28:41;;;;;;;1.50;1.40;;;;;;;;;;5009863;28;20186;-83
2024/03/11 00:31:45;;;;;;;1.10;1.00;;;;;;;;;;5009803;28;20225;-83
2024/03/11 00:34:52;;;;;;;1.60;1.30;;;;;;;;;;4999431;28;20551;-83
2024/03/11 00:37:56;;;;;;;1.20;1.10;;;;;;;;;;5010177;28;20182;-84
2024/03/11 00:41:00;;;;;;;1.13;1.03;;;;;;;;;;4998300;28;20578;-83
2024/03/11 00:44:05;;;;;;;2.03;1.20;;;;;;;;;;5008655;28;20635;-84
2024/03/11 00:47:10;;;;;;;1.30;1.20;;;;;;;;;;5009280;28;20524;-83
2024/03/11 00:50:15;;;;;;;1.53;1.00;;;;;;;;;;4998114;28;20179;-84
2024/03/11 00:53:18;;;;;;;4.53;1.30;;;;;;;;;;4998066;28;20586;-84
2024/03/11 00:56:23;;;;;;;1.13;1.03;;;;;;;;;;5011954;28;20194;-84
2024/03/11 00:59:28;;;;;;;1.10;1.00;;;;;;;;;;5005074;28;20210;-83
2024/03/11 01:02:34;;;;;;;1.37;1.27;;;;;;;;;;5005652;28;20217;-84
2024/03/11 01:05:39;;;;;;;1.13;1.03;;;;;;;;;;5016182;28;20627;-84
2024/03/11 01:08:43;;;;;;;1.40;1.20;;;;;;;;;;5016769;28;20182;-84
2024/03/11 01:11:47;;;;;;;1.07;1.00;;;;;;;;;;5007809;28;20217;-84
2024/03/11 01:14:51;;;;;;;5.20;1.27;;;;;;;;;;5006304;28;20186;-84
2024/03/11 01:17:56;;;;;;;1.27;1.00;;;;;;;;;;5006352;28;20623;-84
2024/03/11 01:21:02;;;;;;;1.17;0.97;;;;;;;;;;5005739;28;20210;-84
2024/03/11 01:24:10;;;;;;;1.47;1.10;;;;;;;;;;5016372;28;20182;-83
2024/03/11 01:27:14;;;;;;;1.13;1.00;;;;;;;;;;5016155;28;20186;-84
2024/03/11 01:30:20;;;;;;;1.93;1.00;;;;;;;;;;5005889;28;20174;-84
2024/03/11 01:33:24;;;;;;;1.83;1.20;;;;;;;;;;5016202;28;20222;-84
2024/03/11 01:36:34;;;;;;;1.27;0.90;;;;;;;;;;5005590;28;20178;-84
2024/03/11 01:39:44;;;;;;;1.50;1.10;;;;;;;;;;5003842;28;20202;-84
2024/03/11 01:42:50;;;;;;;1.23;1.13;;;;;;;;;;5003988;28;20210;-84
2024/03/11 01:45:54;;;;;;;1.43;0.90;;;;;;;;;;5004048;28;20182;-83
2024/03/11 01:48:59;;;;;;;1.20;1.10;;;;;;;;;;5003792;28;20178;-84
2024/03/11 01:52:06;;;;;;;1.20;1.10;;;;;;;;;;5004102;28;20222;-83
2024/03/11 01:55:12;;;;;;;2.37;1.37;;;;;;;;;;5004294;28;20210;-84
2024/03/11 01:58:19;;;;;;;1.90;1.23;;;;;;;;;;4981025;28;20178;-84
2024/03/11 02:01:23;;;;;;;1.07;0.97;;;;;;;;;;5002844;28;20206;-84
2024/03/11 02:04:27;;;;;;;1.93;1.23;;;;;;;;;;5002816;28;20182;-84
2024/03/11 02:07:31;;;;;;;1.20;1.10;;;;;;;;;;5002226;28;20186;-83
2024/03/11 02:10:39;;;;;;;1.27;1.10;;;;;;;;;;5013279;28;20183;-84
2024/03/11 02:13:44;;;;;;;1.17;1.07;;;;;;;;;;5002092;28;20218;-84
2024/03/11 02:16:49;;;;;;;1.00;0.90;;;;;;;;;;5001055;28;20182;-83
2024/03/11 02:19:53;;;;;;;1.30;1.20;;;;;;;;;;5001083;28;20679;-83
2024/03/11 02:22:57;;;;;;;1.10;1.00;;;;;;;;;;5012211;28;20686;-84
2024/03/11 02:26:01;;;;;;;1.47;1.03;;;;;;;;;;5001743;28;20186;-84
2024/03/11 02:29:06;;;;;;;1.40;1.30;;;;;;;;;;5011834;28;20190;-84
2024/03/11 02:32:10;;;;;;;1.87;1.20;;;;;;;;;;5011261;28;20218;-84
2024/03/11 02:35:15;;;;;;;1.77;0.90;;;;;;;;;;4999904;28;20186;-84
2024/03/11 02:38:21;;;;;;;1.67;1.20;;;;;;;;;;4999257;28;20643;-84
2024/03/11 02:41:25;;;;;;;1.63;1.27;;;;;;;;;;4988687;28;20210;-84
2024/03/11 02:44:29;;;;;;;1.47;1.10;;;;;;;;;;5000346;28;20182;-84
2024/03/11 02:47:34;;;;;;;1.30;1.00;;;;;;;;;;4999531;28;20186;-84
2024/03/11 02:50:39;;;;;;;1.07;0.97;;;;;;;;;;5009821;28;20178;-84
2024/03/11 02:53:43;;;;;;;1.67;1.30;;;;;;;;;;4999106;28;20225;-84
2024/03/11 02:56:48;;;;;;;1.30;0.90;;;;;;;;;;5009507;28;20182;-84
2024/03/11 02:59:51;;;;;;;0.90;0.80;;;;;;;;;;5009382;28;20186;-84
2024/03/11 03:02:56;;;;;;;1.27;1.00;;;;;;;;;;4998025;28;20221;-84
2024/03/11 03:06:01;;;;;;;1.50;1.20;;;;;;;;;;4987733;28;20182;-84
2024/03/11 03:09:06;;;;;;;1.30;1.20;;;;;;;;;;4998936;28;20190;-83
2024/03/11 03:12:10;;;;;;;1.47;1.20;;;;;;;;;;4998134;28;20209;-83
2024/03/11 03:15:15;;;;;;;1.10;1.00;;;;;;;;;;4997808;28;20635;-84
2024/03/11 03:18:19;;;;;;;1.20;1.00;;;;;;;;;;4998438;28;20183;-83
2024/03/11 03:21:23;;;;;;;1.37;1.20;;;;;;;;;;5008960;28;20214;-84
2024/03/11 03:24:28;;;;;;;1.20;1.10;;;;;;;;;;5008814;28;20182;-84
2024/03/11 03:27:31;;;;;;;5.70;1.10;;;;;;;;;;4998190;28;20182;-84
2024/03/11 03:30:37;;;;;;;1.20;1.00;;;;;;;;;;4997054;28;20571;-83
2024/03/11 03:33:41;;;;;;;1.97;1.00;;;;;;;;;;4997931;28;20221;-84
2024/03/11 03:36:46;;;;;;;1.43;1.00;;;;;;;;;;4997482;28;20182;-83
2024/03/11 03:39:50;;;;;;;1.20;1.10;;;;;;;;;;4998089;28;20182;-83
2024/03/11 03:42:55;;;;;;;1.10;1.00;;;;;;;;;;5008315;28;20221;-84
2024/03/11 03:45:59;;;;;;;3.30;1.10;;;;;;;;;;4986195;28;20178;-84
2024/03/11 03:49:03;;;;;;;0.87;0.70;;;;;;;;;;4997427;28;20186;-83
2024/03/11 03:52:07;;;;;;;0.80;0.80;;;;;;;;;;5011293;28;20701;-84
2024/03/11 03:55:14;;;;;;;0.80;0.70;;;;;;;;;;5001436;28;20210;-84
2024/03/11 03:58:19;;;;;;;1.23;0.90;;;;;;;;;;5001386;28;20178;-84
2024/03/11 04:01:23;;;;;;;1.10;1.00;;;;;;;;;;5012299;28;20209;-83
2024/03/11 04:04:27;;;;;;;0.73;0.70;;;;;;;;;;5000720;28;20182;-84
2024/03/11 04:07:31;;;;;;;2.03;0.97;;;;;;;;;;5012063;28;20182;-83
2024/03/11 04:10:35;;;;;;;0.80;0.80;;;;;;;;;;5011938;28;20179;-85
2024/03/11 04:13:39;;;;;;;0.83;0.83;;;;;;;;;;4988726;28;20222;-84
2024/03/11 04:16:44;;;;;;;0.80;0.80;;;;;;;;;;5007399;28;20184;-82
2024/03/11 04:19:48;;;;;;;1.13;0.80;;;;;;;;;;4997931;28;20185;-83
2024/03/11 04:22:54;;;;;;;1.07;0.97;;;;;;;;;;5009682;28;20218;-82
2024/03/11 04:26:02;;;;;;;1.50;1.13;;;;;;;;;;5008764;28;20186;-83
2024/03/11 04:29:06;;;;;;;1.20;1.00;;;;;;;;;;4997459;28;20561;-82
2024/03/11 04:32:11;;;;;;;1.80;0.90;;;;;;;;;;5007869;28;21010;-83
2024/03/11 04:35:15;;;;;;;2.20;1.43;;;;;;;;;;5019802;28;20557;-83
2024/03/11 04:38:19;;;;;;;2.70;1.00;;;;;;;;;;5008337;28;20561;-83
2024/03/11 04:41:24;;;;;;;1.07;0.97;;;;;;;;;;5019029;28;20601;-82
2024/03/11 04:44:28;;;;;;;1.60;1.00;;;;;;;;;;5008315;28;20545;-84
2024/03/11 04:47:33;;;;;;;1.10;1.00;;;;;;;;;;5019676;28;20186;-82
2024/03/11 04:50:38;;;;;;;0.90;0.80;;;;;;;;;;4996694;28;20542;-84
2024/03/11 04:53:43;;;;;;;1.10;0.93;;;;;;;;;;5008378;28;20225;-84
2024/03/11 04:56:47;;;;;;;1.63;1.00;;;;;;;;;;5007299;28;20182;-83
2024/03/11 04:59:52;;;;;;;2.43;1.03;;;;;;;;;;4985318;28;20546;-82
2024/03/11 05:03:00;;;;;;;1.47;0.93;;;;;;;;;;5018389;28;20206;-83
2024/03/11 05:06:04;;;;;;;1.27;1.03;;;;;;;;;;5007333;28;20583;-83
2024/03/11 05:09:09;;;;;;;1.40;1.10;;;;;;;;;;4996990;28;20542;-84
2024/03/11 05:12:13;;;;;;;4.80;1.10;;;;;;;;;;5006339;28;20613;-84
2024/03/11 05:15:18;;;;;;;0.97;0.90;;;;;;;;;;5009203;28;20190;-82
2024/03/11 05:18:22;;;;;;;1.10;1.00;;;;;;;;;;4999002;28;20190;-83
2024/03/11 05:21:26;;;;;;;1.47;1.00;;;;;;;;;;4997308;28;20586;-82
2024/03/11 05:24:30;;;;;;;2.50;1.10;;;;;;;;;;5007450;28;20545;-83
2024/03/11 05:27:38;;;;;;;1.00;0.90;;;;;;;;;;5009331;28;20666;-83
2024/03/11 05:30:43;;;;;;;2.03;1.30;;;;;;;;;;4996364;28;20539;-84
2024/03/11 05:33:47;;;;;;;1.10;1.00;;;;;;;;;;5018347;28;20182;-83
2024/03/11 05:36:52;;;;;;;1.80;1.10;;;;;;;;;;4995733;28;21086;-84
2024/03/11 05:39:59;;;;;;;1.20;1.10;;;;;;;;;;5007053;28;20546;-82
2024/03/11 05:43:03;;;;;;;2.97;1.60;;;;;;;;;;5006476;28;20613;-83
2024/03/11 05:46:07;;;;;;;2.10;1.30;;;;;;;;;;5006670;28;20542;-82
2024/03/11 05:49:15;;;;;;;2.03;1.53;;;;;;;;;;5016967;28;20561;-83
2024/03/11 05:52:24;;;;;;;2.27;1.83;;;;;;;;;;5006629;28;20624;-83
2024/03/11 05:55:32;;;;;;;1.53;1.20;;;;;;;;;;5006354;28;20608;-82
2024/03/11 05:58:37;;;;;;;1.17;1.00;;;;;;;;;;5006399;28;20930;-82
2024/03/11 06:01:42;;;;;;;2.73;2.10;;;;;;;;;;5006511;28;20653;-82
2024/03/11 06:04:47;;;;;;;2.57;1.50;;;;;;;;;;4994689;28;20550;-83
2024/03/11 06:07:51;;;;;;;1.57;1.17;;;;;;;;;;5015269;28;20182;-84
2024/03/11 06:10:56;;;;;;;3.80;1.67;;;;;;;;;;5004900;28;20182;-83
2024/03/11 06:14:00;;;;;;;4.20;2.90;;;;;;;;;;5014341;28;20542;-82
2024/03/11 06:17:06;;;;;;;1.73;1.37;;;;;;;;;;5004427;28;20549;-83
2024/03/11 06:20:13;;;;;;;1.77;1.30;;;;;;;;;;4982901;28;20637;-83
2024/03/11 06:23:18;;;;;;;3.80;2.00;;;;;;;;;;4993350;28;20607;-85
2024/03/11 06:26:22;;;;;;;3.83;1.73;;;;;;;;;;5014935;28;20178;-83
2024/03/11 06:29:26;;;;;;;4.23;2.97;;;;;;;;;;5004064;28;20186;-85
2024/03/11 06:32:32;;;;;;;10.33;5.53;;;;;;;;;;4992967;28;20211;-85
2024/03/11 06:35:36;;;;;;;15.97;8.27;;;;;;;;;;5003753;28;20557;-83
2024/03/11 06:38:40;;;;;;;10.07;6.57;;;;;;;;;;5013934;28;20561;-83
2024/03/11 06:41:45;;;;;;;9.43;5.70;;;;;;;;;;5003667;28;20656;-84
2024/03/11 06:44:49;;;;;;;9.43;5.30;;;;;;;;;;5015106;28;20186;-85
2024/03/11 06:47:54;;;;;;;9.07;5.27;;;;;;;;;;4992462;28;20182;-85
2024/03/11 06:50:58;;;;;;;5.03;4.13;;;;;;;;;;4993177;28;20201;-84
2024/03/11 06:54:03;;;;;;;6.90;4.50;;;;;;;;;;5015970;28;20194;-84
2024/03/11 06:57:07;;;;;;;7.87;4.87;;;;;;;;;;5005270;28;20182;-84
2024/03/11 07:00:18;;;;;;;6.93;4.50;;;;;;;;;;5005545;28;20567;-85
2024/03/11 07:03:23;;;;;;;9.90;5.17;;;;;;;;;;4993802;28;20218;-85
2024/03/11 07:06:27;;;;;;;7.30;5.10;;;;;;;;;;4984466;28;20186;-85
2024/03/11 07:09:34;;;;;;;8.00;5.20;;;;;;;;;;4995952;28;20186;-83
2024/03/11 07:12:42;;;;;;;5.80;3.43;;;;;;;;;;4985230;28;20218;-85
2024/03/11 07:15:47;;;;;;;10.13;6.90;;;;;;;;;;5021162;28;20182;-84
2024/03/11 07:18:54;;;;;;;6.70;4.63;;;;;;;;;;4990210;28;20178;-84
2024/03/11 07:21:59;;;;;;;5.20;4.53;;;;;;;;;;5009514;28;20229;-83
2024/03/11 07:25:09;;;;;;;15.90;12.33;;;;;;;;;;5010337;28;20178;-84
2024/03/11 07:28:13;;;;;;;5.13;3.67;;;;;;;;;;4991844;28;20170;-85
2024/03/11 07:31:17;;;;;;;3.80;2.50;;;;;;;;;;5025384;28;20178;-85
2024/03/11 07:34:21;;;;;;;8.93;7.37;;;;;;;;;;5002315;28;20178;-85
2024/03/11 07:37:26;;;;;;;15.30;9.80;;;;;;;;;;4990975;28;20185;-86
2024/03/11 07:40:31;;;;;;;2.53;2.07;;;;;;;;;;5001243;28;20189;-85
2024/03/11 07:43:36;;;;;;;3.37;1.80;;;;;;;;;;5000294;28;20214;-85
2024/03/11 07:46:41;;;;;;;2.13;1.67;;;;;;;;;;5011995;28;20194;-84
2024/03/11 07:49:45;;;;;;;2.13;1.27;;;;;;;;;;5012187;28;20186;-85
2024/03/11 07:52:50;;;;;;;1.30;1.20;;;;;;;;;;4999756;28;20210;-84
2024/03/11 07:55:54;;;;;;;2.23;1.10;;;;;;;;;;5010642;28;20209;-85
2024/03/11 07:58:58;;;;;;;1.10;1.03;;;;;;;;;;4999519;28;20554;-85
2024/03/11 08:02:03;;;;;;;1.80;1.30;;;;;;;;;;5024194;28;20225;-84
2024/03/11 08:05:13;;;;;;;2.37;2.13;;;;;;;;;;5001371;28;20182;-84
2024/03/11 08:08:17;;;;;;;1.80;1.30;;;;;;;;;;5011753;28;20179;-85
2024/03/11 08:11:21;;;;;;;4.43;2.00;;;;;;;;;;5023331;28;20182;-84
2024/03/11 08:14:26;;;;;;;3.13;1.40;;;;;;;;;;4990664;28;20190;-84
2024/03/11 08:17:30;;;;;;;1.90;1.50;;;;;;;;;;5001485;28;20174;-85
2024/03/11 08:20:34;;;;;;;2.57;1.40;;;;;;;;;;4989989;28;20178;-85
2024/03/11 08:23:40;;;;;;;2.13;1.70;;;;;;;;;;5000944;28;20222;-84
2024/03/11 08:26:44;;;;;;;2.37;1.70;;;;;;;;;;5012109;28;20186;-84
2024/03/11 08:29:49;;;;;;;1.83;1.13;;;;;;;;;;4999863;28;20186;-84
2024/03/11 08:32:56;;;;;;;1.73;1.23;;;;;;;;;;4989118;28;20210;-85
2024/03/11 08:36:04;;;;;;;1.10;1.00;;;;;;;;;;4986036;28;20186;-82
2024/03/11 08:39:10;;;;;;;1.03;0.93;;;;;;;;;;5013238;28;20174;-83
2024/03/11 08:42:14;;;;;;;1.70;0.97;;;;;;;;;;5012881;28;20233;-84
2024/03/11 08:45:22;;;;;;;0.90;0.70;;;;;;;;;;5002302;28;20182;-84
2024/03/11 08:48:26;;;;;;;0.90;0.87;;;;;;;;;;5002374;28;20190;-84
2024/03/11 08:51:31;;;;;;;2.20;1.20;;;;;;;;;;5001510;28;20178;-84
2024/03/11 08:54:35;;;;;;;1.37;0.80;;;;;;;;;;5014344;28;20205;-84
2024/03/11 08:57:40;;;;;;;1.03;0.70;;;;;;;;;;5001924;28;20178;-84
2024/03/11 09:00:45;;;;;;;1.03;0.80;;;;;;;;;;5012979;28;20182;-84
2024/03/11 09:03:50;;;;;;;4.47;1.17;;;;;;;;;;5023622;28;20182;-83
2024/03/11 09:06:57;;;;;;;0.90;0.90;;;;;;;;;;5002482;28;20174;-84
2024/03/11 09:10:03;;;;;;;6.60;4.17;;;;;;;;;;5012580;28;20178;-84
2024/03/11 09:13:07;;;;;;;12.90;8.20;;;;;;;;;;5024510;28;20214;-84
2024/03/11 09:16:12;;;;;;;7.83;6.53;;;;;;;;;;5018845;28;20178;-83
2024/03/11 09:19:16;;;;;;;1.80;0.97;;;;;;;;;;5016789;28;20183;-84
2024/03/11 09:22:21;;;;;;;10.50;1.43;;;;;;;;;;5025769;28;20541;-84
2024/03/11 09:25:26;;;;;;;1.07;0.80;;;;;;;;;;5001983;28;20637;-83
2024/03/11 09:28:31;;;;;;;1.00;0.80;;;;;;;;;;5024174;28;20182;-84
2024/03/11 09:31:39;;;;;;;1.10;0.70;;;;;;;;;;5023669;28;20175;-84
2024/03/11 09:34:45;;;;;;;0.93;0.87;;;;;;;;;;5011095;28;20182;-84
2024/03/11 09:37:53;;;;;;;2.20;0.80;;;;;;;;;;5023482;28;20186;-84
2024/03/11 09:41:11;;;;;;;1.00;0.80;;;;;;;;;;4998970;28;20182;-85
2024/03/11 09:44:26;;;;;;;1.53;1.10;;;;;;;;;;5000932;28;20178;-84
2024/03/11 09:48:04;;;;;;;0.90;0.70;;;;;;;;;;5009726;28;20182;-86
2024/03/11 09:51:20;;;;;;;1.93;0.80;;;;;;;;;;4999144;28;20201;-84
2024/03/11 09:54:28;;;;;;;1.07;0.60;;;;;;;;;;4986281;28;20213;-84
2024/03/11 09:57:34;;;;;;;0.90;0.60;;;;;;;;;;5015219;28;20178;-84
2024/03/11 10:00:49;;;;;;;0.80;0.70;;;;;;;;;;4992822;28;20190;-84
2024/03/11 10:03:56;;;;;;;1.90;0.70;;;;;;;;;;4981935;28;20206;-84
2024/03/11 10:07:05;;;;;;;0.70;0.50;;;;;;;;;;5016035;28;20186;-83
2024/03/11 10:10:12;;;;;;;1.70;0.60;;;;;;;;;;5004093;28;20179;-85
2024/03/11 10:13:28;;;;;;;1.47;0.70;;;;;;;;;;5005849;28;20213;-86
2024/03/11 10:16:33;;;;;;;0.70;0.60;;;;;;;;;;5006462;28;20178;-84
2024/03/11 10:19:59;;;;;;;0.70;0.50;;;;;;;;;;4998775;28;20182;-84
2024/03/11 10:23:09;;;;;;;4.50;0.50;;;;;;;;;;4998336;28;20221;-84
2024/03/11 10:26:17;;;;;;;0.50;0.43;;;;;;;;;;4998809;28;20174;-85
2024/03/11 10:29:31;;;;;;;1.57;0.60;;;;;;;;;;5009123;28;20186;-85
2024/03/11 10:32:38;;;;;;;2.97;0.70;;;;;;;;;;4998477;28;20214;-84
2024/03/11 10:35:43;;;;;;;1.27;0.50;;;;;;;;;;5009581;28;20190;-85
2024/03/11 10:38:48;;;;;;;0.93;0.63;;;;;;;;;;4998629;28;20190;-85
2024/03/11 10:41:53;;;;;;;1.53;0.50;;;;;;;;;;5008381;28;20217;-84
2024/03/11 10:44:57;;;;;;;1.07;0.60;;;;;;;;;;5008719;28;20186;-85
2024/03/11 10:48:02;;;;;;;0.93;0.57;;;;;;;;;;5008741;28;20529;-85
2024/03/11 10:51:09;;;;;;;2.13;0.80;;;;;;;;;;4999155;28;20186;-84
2024/03/11 10:54:23;;;;;;;2.10;0.60;;;;;;;;;;4999021;28;20174;-84
2024/03/11 10:57:34;;;;;;;0.87;0.70;;;;;;;;;;4998839;28;20178;-85
2024/03/11 11:00:40;;;;;;;3.30;0.50;;;;;;;;;;5008075;28;20179;-85
2024/03/11 11:03:52;;;;;;;1.03;0.50;;;;;;;;;;4996920;28;20683;-84
2024/03/11 11:07:00;;;;;;;1.30;0.50;;;;;;;;;;5009190;28;20179;-85
2024/03/11 11:10:07;;;;;;;1.40;0.63;;;;;;;;;;4997536;28;20521;-83
2024/03/11 11:13:15;;;;;;;0.80;0.60;;;;;;;;;;4997031;28;20218;-83
2024/03/11 11:16:25;;;;;;;3.70;0.70;;;;;;;;;;4997877;28;20186;-83
2024/03/11 11:19:34;;;;;;;0.73;0.40;;;;;;;;;;4996305;28;20186;-82
2024/03/11 11:22:38;;;;;;;0.93;0.40;;;;;;;;;;4984746;28;20222;-82
2024/03/11 11:25:44;;;;;;;3.40;0.60;;;;;;;;;;4996423;28;20190;-85
2024/03/11 11:29:00;;;;;;;1.87;0.50;;;;;;;;;;4996793;28;20178;-85
2024/03/11 11:32:07;;;;;;;0.50;0.47;;;;;;;;;;5007523;28;20218;-84
2024/03/11 11:35:31;;;;;;;0.50;0.40;;;;;;;;;;4995793;28;20182;-85
2024/03/11 11:38:35;;;;;;;0.97;0.57;;;;;;;;;;4996981;28;20182;-85
2024/03/11 11:41:45;;;;;;;0.40;0.40;;;;;;;;;;5007941;28;20190;-84
2024/03/11 11:44:51;;;;;;;1.57;0.50;;;;;;;;;;4984880;28;20198;-85
2024/03/11 11:48:12;;;;;;;0.77;0.70;;;;;;;;;;5007139;28;20183;-86
2024/03/11 11:51:18;;;;;;;1.53;0.70;;;;;;;;;;4984583;28;20175;-84
2024/03/11 11:54:25;;;;;;;1.77;0.60;;;;;;;;;;5017453;28;20206;-85
2024/03/11 11:57:30;;;;;;;0.60;0.50;;;;;;;;;;4981255;28;20186;-85
2024/03/11 12:00:35;;;;;;;1.90;0.50;;;;;;;;;;5004344;28;20182;-84
2024/03/11 12:03:39;;;;;;;0.87;0.50;;;;;;;;;;5014752;28;20230;-84
2024/03/11 12:06:43;;;;;;;2.67;0.57;;;;;;;;;;5015133;28;20186;-84
2024/03/11 12:09:50;;;;;;;0.43;0.40;;;;;;;;;;5005194;28;20186;-84
2024/03/11 12:12:54;;;;;;;0.73;0.60;;;;;;;;;;4993532;28;20221;-85
2024/03/11 12:16:04;;;;;;;8.00;0.70;;;;;;;;;;5006548;28;20178;-85
2024/03/11 12:19:11;;;;;;;0.47;0.30;;;;;;;;;;5007357;28;20643;-85
2024/03/11 12:22:16;;;;;;;1.73;0.60;;;;;;;;;;5017661;28;20213;-84
2024/03/11 12:25:21;;;;;;;0.43;0.40;;;;;;;;;;4995751;28;20170;-85
2024/03/11 12:28:26;;;;;;;1.17;0.57;;;;;;;;;;5017880;28;20178;-85
2024/03/11 12:31:35;;;;;;;3.30;0.60;;;;;;;;;;5005838;28;20186;-85
2024/03/11 12:34:42;;;;;;;0.70;0.50;;;;;;;;;;4983971;28;20182;-86
2024/03/11 12:37:47;;;;;;;0.70;0.40;;;;;;;;;;5018178;28;20182;-85
2024/03/11 12:40:53;;;;;;;0.53;0.40;;;;;;;;;;5006186;28;20183;-85
2024/03/11 12:44:11;;;;;;;2.53;0.40;;;;;;;;;;5008128;28;20552;-84
2024/03/11 12:47:16;;;;;;;1.00;0.47;;;;;;;;;;5006977;28;20178;-85
2024/03/11 12:50:21;;;;;;;1.00;0.60;;;;;;;;;;5017819;28;20186;-85
2024/03/11 12:53:29;;;;;;;2.10;1.80;;;;;;;;;;5006501;28;20225;-85
2024/03/11 12:56:33;;;;;;;0.73;0.50;;;;;;;;;;4995407;28;20174;-86
2024/03/11 12:59:57;;;;;;;1.10;0.50;;;;;;;;;;4994334;28;20178;-85
2024/03/11 13:03:08;;;;;;;1.07;0.67;;;;;;;;;;4995825;28;20225;-85
2024/03/11 13:06:19;;;;;;;1.17;0.60;;;;;;;;;;4994703;28;20186;-85
2024/03/11 13:09:27;;;;;;;1.10;0.50;;;;;;;;;;5017439;28;20524;-84
2024/03/11 13:12:32;;;;;;;0.70;0.60;;;;;;;;;;5005065;28;20218;-82
2024/03/11 13:15:36;;;;;;;1.03;0.47;;;;;;;;;;5009589;28;20647;-83
2024/03/11 13:18:40;;;;;;;0.60;0.53;;;;;;;;;;5008929;28;20190;-83
2024/03/11 13:21:49;;;;;;;0.80;0.73;;;;;;;;;;5015148;28;20214;-84
2024/03/11 13:25:02;;;;;;;2.20;0.77;;;;;;;;;;4990590;28;20206;-84
2024/03/11 13:28:07;;;;;;;0.80;0.60;;;;;;;;;;5001474;28;20178;-81
2024/03/11 13:31:12;;;;;;;0.90;0.53;;;;;;;;;;5006168;28;20182;-84
2024/03/11 13:34:17;;;;;;;1.27;0.60;;;;;;;;;;4996894;28;20183;-85
2024/03/11 13:37:22;;;;;;;1.77;0.40;;;;;;;;;;5018556;28;20182;-85
2024/03/11 13:40:26;;;;;;;1.47;0.50;;;;;;;;;;4994715;28;20179;-85
2024/03/11 13:43:32;;;;;;;1.70;0.50;;;;;;;;;;5007459;28;20226;-85
2024/03/11 13:46:38;;;;;;;2.47;0.53;;;;;;;;;;5010764;28;20549;-84
2024/03/11 13:49:46;;;;;;;14.20;1.10;;;;;;;;;;4999307;28;20182;-85
2024/03/11 13:52:50;;;;;;;1.53;0.50;;;;;;;;;;4988859;28;20222;-85
2024/03/11 13:55:58;;;;;;;2.30;0.50;;;;;;;;;;5012447;28;20213;-85
2024/03/11 13:59:05;;;;;;;0.80;0.60;;;;;;;;;;5012656;28;20186;-86
2024/03/11 14:02:09;;;;;;;1.13;0.53;;;;;;;;;;5011314;28;20213;-86
2024/03/11 14:05:14;;;;;;;2.00;0.60;;;;;;;;;;5010210;28;20210;-86
2024/03/11 14:08:18;;;;;;;1.00;0.60;;;;;;;;;;5009902;28;20178;-84
2024/03/11 14:11:25;;;;;;;0.53;0.50;;;;;;;;;;5021793;28;20182;-84
2024/03/11 14:14:29;;;;;;;0.57;0.50;;;;;;;;;;4999126;28;20178;-85
2024/03/11 14:17:33;;;;;;;1.70;0.50;;;;;;;;;;5010675;28;20174;-84
2024/03/11 14:20:38;;;;;;;9.13;1.20;;;;;;;;;;4988224;28;20178;-85
2024/03/11 14:23:42;;;;;;;1.20;0.67;;;;;;;;;;5000219;28;20560;-85
2024/03/11 14:26:47;;;;;;;0.73;0.50;;;;;;;;;;5011523;28;20182;-85
2024/03/11 14:29:52;;;;;;;2.87;0.60;;;;;;;;;;5021641;28;20186;-85
2024/03/11 14:32:57;;;;;;;6.60;2.77;;;;;;;;;;5022087;28;20218;-84
2024/03/11 14:36:04;;;;;;;1.67;1.50;;;;;;;;;;5021761;28;20170;-85
2024/03/11 14:39:19;;;;;;;2.83;0.40;;;;;;;;;;5011704;28;20182;-85
2024/03/11 14:42:24;;;;;;;0.70;0.40;;;;;;;;;;4999710;28;20214;-85
2024/03/11 14:45:30;;;;;;;5.17;0.63;;;;;;;;;;5010948;28;20652;-85
2024/03/11 14:48:35;;;;;;;2.07;0.50;;;;;;;;;;5011719;28;20178;-85
2024/03/11 14:51:40;;;;;;;0.83;0.37;;;;;;;;;;5011552;28;20174;-84
2024/03/11 14:54:44;;;;;;;1.27;0.50;;;;;;;;;;5021847;28;20202;-85
2024/03/11 14:57:50;;;;;;;1.07;0.60;;;;;;;;;;5011126;28;20186;-85
2024/03/11 15:00:57;;;;;;;0.70;0.60;;;;;;;;;;4988330;28;20178;-85
2024/03/11 15:04:01;;;;;;;2.73;0.47;;;;;;;;;;5011636;28;20206;-84
2024/03/11 15:07:07;;;;;;;14.47;1.27;;;;;;;;;;5022316;28;20178;-85
2024/03/11 15:10:11;;;;;;;1.27;0.50;;;;;;;;;;4998817;28;20179;-85
2024/03/11 15:13:16;;;;;;;0.70;0.50;;;;;;;;;;5010572;28;20214;-84
2024/03/11 15:16:20;;;;;;;0.63;0.40;;;;;;;;;;5010713;28;20182;-85
2024/03/11 15:19:25;;;;;;;2.37;0.63;;;;;;;;;;5013547;28;20179;-84
2024/03/11 15:22:31;;;;;;;2.13;0.60;;;;;;;;;;5001508;28;20382;-84
2024/03/11 15:25:37;;;;;;;1.23;0.43;;;;;;;;;;5023905;28;20210;-85
2024/03/11 15:28:43;;;;;;;0.30;0.30;;;;;;;;;;5013190;28;20182;-85
2024/03/11 15:31:48;;;;;;;1.97;0.50;;;;;;;;;;5012018;28;20218;-84
2024/03/11 15:34:53;;;;;;;0.93;0.50;;;;;;;;;;5011778;28;20174;-85
2024/03/11 15:37:57;;;;;;;1.00;0.50;;;;;;;;;;5022882;28;20182;-85
2024/03/11 15:41:02;;;;;;;0.50;0.40;;;;;;;;;;5011924;28;20186;-84
2024/03/11 15:44:09;;;;;;;0.50;0.50;;;;;;;;;;5011181;28;20194;-85
2024/03/11 15:47:15;;;;;;;3.10;0.90;;;;;;;;;;5003044;28;20182;-85
2024/03/11 15:50:20;;;;;;;2.73;0.80;;;;;;;;;;5014377;28;20290;-85
2024/03/11 15:53:25;;;;;;;1.53;0.40;;;;;;;;;;5008686;28;20221;-85
2024/03/11 15:56:29;;;;;;;0.73;0.50;;;;;;;;;;5005144;28;20174;-85
2024/03/11 15:59:34;;;;;;;0.87;0.67;;;;;;;;;;5005940;28;20178;-83
2024/03/11 16:02:38;;;;;;;1.20;0.50;;;;;;;;;;5002853;28;20222;-84
2024/03/11 16:05:43;;;;;;;0.97;0.60;;;;;;;;;;5001751;28;20206;-84
2024/03/11 16:08:47;;;;;;;0.87;0.60;;;;;;;;;;5013826;28;20186;-84
2024/03/11 16:11:52;;;;;;;2.63;0.70;;;;;;;;;;5004740;28;20213;-84
2024/03/11 16:14:57;;;;;;;4.73;2.10;;;;;;;;;;5006434;28;20535;-84
2024/03/11 16:18:01;;;;;;;6.47;2.83;;;;;;;;;;5003346;28;20186;-84
2024/03/11 16:21:06;;;;;;;5.97;3.00;;;;;;;;;;5000229;28;20186;-85
2024/03/11 16:24:11;;;;;;;7.23;4.70;;;;;;;;;;5010508;28;20218;-84
2024/03/11 16:27:18;;;;;;;8.53;1.70;;;;;;;;;;5009832;28;20182;-83
2024/03/11 16:30:26;;;;;;;4.10;1.37;;;;;;;;;;4999115;28;20186;-83
2024/03/11 16:33:30;;;;;;;6.53;1.07;;;;;;;;;;5009414;28;20226;-83
2024/03/11 16:36:37;;;;;;;8.27;1.57;;;;;;;;;;4999107;28;20525;-82
2024/03/11 16:39:41;;;;;;;1.00;0.60;;;;;;;;;;4999635;28;20524;-83
2024/03/11 16:42:47;;;;;;;1.90;0.73;;;;;;;;;;4999334;28;20218;-83
2024/03/11 16:45:52;;;;;;;2.30;0.70;;;;;;;;;;5010090;28;20218;-83
2024/03/11 16:48:56;;;;;;;1.13;0.53;;;;;;;;;;4999014;28;20186;-83
2024/03/11 16:52:01;;;;;;;4.07;1.50;;;;;;;;;;4998517;28;20225;-83
2024/03/11 16:55:12;;;;;;;9.97;1.53;;;;;;;;;;4987115;28;20201;-83
2024/03/11 16:58:16;;;;;;;7.37;3.10;;;;;;;;;;4987486;28;20175;-82
2024/03/11 17:01:20;;;;;;;8.43;4.33;;;;;;;;;;4999491;28;20182;-82
2024/03/11 17:04:29;;;;;;;8.50;5.17;;;;;;;;;;4998242;28;20214;-83
2024/03/11 17:07:33;;;;;;;5.07;2.60;;;;;;;;;;4987022;28;20186;-83
2024/03/11 17:10:39;;;;;;;1.67;1.43;;;;;;;;;;5009638;28;20182;-82
2024/03/11 17:13:46;;;;;;;0.90;0.67;;;;;;;;;;4999283;28;20218;-83
2024/03/11 17:16:50;;;;;;;2.07;0.60;;;;;;;;;;5009249;28;20175;-83
2024/03/11 17:19:55;;;;;;;0.93;0.60;;;;;;;;;;5007990;28;20174;-83
2024/03/11 17:23:04;;;;;;;1.13;0.60;;;;;;;;;;5008515;28;20210;-83
2024/03/11 17:26:09;;;;;;;1.80;0.60;;;;;;;;;;4998204;28;20218;-83
2024/03/11 17:29:15;;;;;;;0.97;0.50;;;;;;;;;;5014323;28;20182;-83
2024/03/11 17:32:20;;;;;;;1.70;0.60;;;;;;;;;;5018315;28;20690;-84
2024/03/11 17:35:29;;;;;;;0.60;0.57;;;;;;;;;;5008487;28;20174;-84
2024/03/11 17:38:59;;;;;;;0.70;0.50;;;;;;;;;;5019051;28;20186;-84
2024/03/11 17:42:05;;;;;;;0.93;0.40;;;;;;;;;;5009645;28;20213;-84
2024/03/11 17:45:14;;;;;;;1.17;0.50;;;;;;;;;;5007919;28;20214;-84
2024/03/11 17:48:27;;;;;;;1.87;0.50;;;;;;;;;;4985548;28;20197;-84
2024/03/11 17:51:32;;;;;;;0.87;0.53;;;;;;;;;;5006480;28;20187;-83
2024/03/11 17:54:36;;;;;;;1.63;0.57;;;;;;;;;;5016374;28;20202;-83
2024/03/11 17:57:42;;;;;;;2.70;0.50;;;;;;;;;;5006858;28;20178;-84
2024/03/11 18:00:47;;;;;;;0.70;0.50;;;;;;;;;;4993179;28;20182;-83
2024/03/11 18:03:51;;;;;;;0.77;0.50;;;;;;;;;;4994446;28;20186;-83
2024/03/11 18:06:56;;;;;;;0.70;0.50;;;;;;;;;;5004008;28;20175;-83
2024/03/11 18:10:01;;;;;;;1.43;0.60;;;;;;;;;;5004821;28;20178;-83
2024/03/11 18:13:07;;;;;;;0.53;0.50;;;;;;;;;;5015170;28;20214;-83
2024/03/11 18:16:11;;;;;;;1.93;0.63;;;;;;;;;;5004513;28;20667;-83
2024/03/11 18:19:15;;;;;;;1.47;0.60;;;;;;;;;;5005962;28;20187;-83
2024/03/11 18:22:21;;;;;;;1.03;0.60;;;;;;;;;;5003322;28;20214;-83
2024/03/11 18:25:25;;;;;;;1.57;0.70;;;;;;;;;;5003696;28;20210;-83
2024/03/11 18:28:31;;;;;;;0.80;0.60;;;;;;;;;;5014726;28;20632;-83
2024/03/11 18:31:36;;;;;;;2.47;0.70;;;;;;;;;;5012877;28;20186;-84
2024/03/11 18:34:42;;;;;;;0.50;0.50;;;;;;;;;;5001666;28;20178;-83